Time;durP1;ratioP1;P1;durP2;ratioP2;P2;SDS_P1;SDS_P2;PMS_P1;PMS_P2;Temp;Humidity;BMP_temperature;BMP_pressure;BME280_temperature;BME280_humidity;BME280_pressure;Samples;Min_cycle;Max_cycle;Signal;HPM_P1;HPM_P2
2023/04/02 03:00:44;;;;;;;1.90;0.80;;;10.00;81.90;;;;;;5988449;23;20393;-73
2023/04/02 03:03:14;;;;;;;1.77;0.63;;;10.00;82.00;;;;;;4974567;28;20431;-74
2023/04/02 03:05:41;;;;;;;1.90;0.80;;;9.90;82.60;;;;;;4974596;28;20442;-74
2023/04/02 03:08:17;;;;;;;2.00;0.83;;;9.90;82.60;;;;;;4974414;28;20481;-74
2023/04/02 03:10:50;;;;;;;2.20;0.70;;;10.00;82.60;;;;;;4974456;28;20819;-74
2023/04/02 03:13:23;;;;;;;2.00;0.90;;;10.10;82.20;;;;;;4975435;28;20434;-74
2023/04/02 03:15:59;;;;;;;1.80;0.70;;;10.20;81.80;;;;;;4974109;28;20435;-74
2023/04/02 03:18:34;;;;;;;2.00;0.70;;;10.30;81.50;;;;;;4976740;28;20433;-74
2023/04/02 03:21:06;;;;;;;2.03;0.83;;;10.30;80.90;;;;;;4978588;28;20470;-74
2023/04/02 03:23:37;;;;;;;2.00;0.70;;;10.30;81.20;;;;;;4977951;28;20442;-74
2023/04/02 03:26:08;;;;;;;2.00;0.77;;;10.30;81.20;;;;;;4978228;28;20435;-74
2023/04/02 03:28:39;;;;;;;1.90;0.60;;;10.20;81.10;;;;;;4977801;28;20987;-74
2023/04/02 03:31:13;;;;;;;2.67;0.70;;;10.20;81.30;;;;;;4978019;28;20474;-74
2023/04/02 03:33:43;;;;;;;1.80;0.60;;;10.30;81.20;;;;;;4978085;28;20434;-74
2023/04/02 03:36:19;;;;;;;2.10;0.70;;;10.30;81.10;;;;;;4978353;28;20919;-74
2023/04/02 03:38:50;;;;;;;1.80;0.70;;;10.20;81.30;;;;;;4977976;28;20449;-73
2023/04/02 03:41:22;;;;;;;1.90;0.80;;;10.30;81.10;;;;;;4977871;28;20549;-74
2023/04/02 03:43:53;;;;;;;1.90;0.70;;;10.40;80.70;;;;;;4978003;28;20881;-73
2023/04/02 03:46:26;;;;;;;1.80;0.60;;;10.40;80.40;;;;;;4977912;28;20508;-74
2023/04/02 03:48:56;;;;;;;1.90;0.67;;;10.40;80.40;;;;;;4977815;28;20819;-73
2023/04/02 03:51:27;;;;;;;1.90;0.60;;;10.40;80.40;;;;;;4977748;28;20470;-73
2023/04/02 03:53:55;;;;;;;2.00;0.70;;;10.40;80.50;;;;;;4978303;28;20438;-74
2023/04/02 03:56:27;;;;;;;3.10;0.60;;;10.40;80.40;;;;;;4977638;28;20493;-74
2023/04/02 03:59:05;;;;;;;1.80;0.60;;;10.50;80.20;;;;;;4977624;28;20426;-73
2023/04/02 04:01:37;;;;;;;1.83;0.70;;;10.60;80.00;;;;;;4977400;28;20484;-74
2023/04/02 04:04:09;;;;;;;2.63;0.60;;;10.50;79.90;;;;;;4977788;28;20488;-74
2023/04/02 04:06:37;;;;;;;2.07;0.70;;;10.30;79.90;;;;;;4977318;28;20840;-74
2023/04/02 04:09:10;;;;;;;2.30;0.80;;;10.20;80.10;;;;;;4977272;28;20486;-74
2023/04/02 04:11:43;;;;;;;1.80;0.60;;;10.10;80.70;;;;;;4977011;28;20470;-73
2023/04/02 04:14:18;;;;;;;2.40;0.80;;;9.90;81.20;;;;;;4976957;28;20434;-73
2023/04/02 04:16:52;;;;;;;1.83;0.70;;;9.70;81.80;;;;;;4977281;28;20434;-73
2023/04/02 04:19:28;;;;;;;2.57;0.70;;;9.70;82.60;;;;;;4977233;28;20469;-74
2023/04/02 04:22:09;;;;;;;2.07;0.80;;;9.90;82.40;;;;;;4977101;28;20497;-74
2023/04/02 04:24:38;;;;;;;1.97;0.70;;;9.70;81.80;;;;;;4977166;28;20439;-74
2023/04/02 04:27:09;;;;;;;2.10;0.70;;;9.70;82.80;;;;;;4977062;28;20461;-74
2023/04/02 04:29:44;;;;;;;1.90;0.70;;;9.80;82.50;;;;;;4976708;28;20557;-74
2023/04/02 04:32:30;;;;;;;1.90;0.80;;;9.90;82.00;;;;;;4976939;28;20469;-74
2023/04/02 04:35:02;;;;;;;1.97;0.70;;;9.80;82.60;;;;;;4976933;28;20490;-74
2023/04/02 04:37:34;;;;;;;2.10;0.80;;;10.00;82.20;;;;;;4976584;28;20834;-74
2023/04/02 04:40:06;;;;;;;1.93;0.80;;;9.50;82.90;;;;;;4976669;28;20975;-74
2023/04/02 04:42:36;;;;;;;1.83;0.77;;;9.40;83.90;;;;;;4976799;28;20474;-74
2023/04/02 04:45:11;;;;;;;2.00;0.80;;;9.50;83.90;;;;;;4976720;28;20545;-74
2023/04/02 04:47:43;;;;;;;2.20;1.00;;;9.50;84.20;;;;;;4976469;28;20438;-74
2023/04/02 04:50:16;;;;;;;2.20;1.10;;;9.50;83.50;;;;;;4976567;28;20470;-74
2023/04/02 04:52:43;;;;;;;1.90;0.80;;;9.40;84.60;;;;;;4976540;28;20888;-74
2023/04/02 04:55:29;;;;;;;2.27;0.80;;;9.50;84.60;;;;;;4976574;28;20450;-74
2023/04/02 04:58:00;;;;;;;3.60;0.80;;;9.50;84.60;;;;;;4976576;28;20481;-74
2023/04/02 05:00:35;;;;;;;2.00;0.80;;;9.30;84.30;;;;;;4976657;28;20437;-73
2023/04/02 05:03:12;;;;;;;2.13;1.23;;;9.20;85.20;;;;;;4975235;28;20859;-74
2023/04/02 05:05:40;;;;;;;4.13;0.90;;;9.20;85.10;;;;;;4975498;28;20497;-74
2023/04/02 05:08:13;;;;;;;2.00;0.80;;;9.00;85.80;;;;;;4975282;28;20450;-74
2023/04/02 05:10:44;;;;;;;2.00;0.80;;;9.10;85.90;;;;;;4975241;28;20458;-74
2023/04/02 05:13:17;;;;;;;3.43;1.20;;;9.10;85.70;;;;;;4975322;28;20515;-74
2023/04/02 05:15:49;;;;;;;2.93;0.80;;;9.20;85.70;;;;;;4975302;28;20441;-74
2023/04/02 05:18:25;;;;;;;2.43;1.00;;;9.30;85.40;;;;;;4975247;28;20545;-74
2023/04/02 05:20:58;;;;;;;2.00;0.80;;;9.40;85.00;;;;;;4975068;28;20472;-74
2023/04/02 05:23:27;;;;;;;2.00;0.80;;;9.50;84.60;;;;;;4975157;28;20435;-74
2023/04/02 05:26:01;;;;;;;2.00;0.90;;;9.40;84.40;;;;;;4975076;28;20450;-74
2023/04/02 05:28:34;;;;;;;2.70;0.90;;;9.20;85.30;;;;;;4974998;28;20445;-74
2023/04/02 05:31:06;;;;;;;2.10;0.90;;;9.30;85.70;;;;;;4974980;28;20841;-74
2023/04/02 05:33:36;;;;;;;2.10;0.90;;;9.50;85.30;;;;;;4974983;28;20430;-74
2023/04/02 05:36:07;;;;;;;2.00;0.90;;;9.70;84.60;;;;;;4975749;28;20845;-74
2023/04/02 05:38:36;;;;;;;2.30;0.80;;;9.80;84.20;;;;;;4974872;28;20461;-74
2023/04/02 05:41:06;;;;;;;2.00;1.10;;;9.90;83.90;;;;;;4973976;28;20470;-74
2023/04/02 05:43:36;;;;;;;2.07;0.90;;;10.00;83.50;;;;;;4974764;28;20454;-74
2023/04/02 05:46:13;;;;;;;3.07;1.00;;;10.10;83.20;;;;;;4975012;28;20450;-74
2023/04/02 05:48:43;;;;;;;2.10;0.80;;;9.90;83.10;;;;;;4974749;28;20551;-74
2023/04/02 05:51:18;;;;;;;1.90;0.70;;;10.00;83.50;;;;;;4974875;28;20474;-74
2023/04/02 05:53:49;;;;;;;2.37;0.90;;;10.00;83.50;;;;;;4974653;28;20811;-74
2023/04/02 05:56:20;;;;;;;2.40;0.80;;;9.80;83.60;;;;;;4974609;28;20485;-74
2023/04/02 05:58:50;;;;;;;2.00;0.70;;;9.50;84.70;;;;;;4974736;28;20435;-74
2023/04/02 06:01:24;;;;;;;2.30;1.17;;;9.50;85.40;;;;;;4939270;28;1035839;-74
2023/04/02 06:03:59;;;;;;;1.80;0.70;;;9.60;85.30;;;;;;4975396;28;20190;-74
2023/04/02 06:06:45;;;;;;;2.00;0.80;;;9.20;85.80;;;;;;4975352;28;20446;-74
2023/04/02 06:09:19;;;;;;;2.10;1.00;;;9.20;86.90;;;;;;4976174;28;20474;-74
2023/04/02 06:11:51;;;;;;;2.10;0.87;;;9.10;87.00;;;;;;4975348;28;20473;-74
2023/04/02 06:14:18;;;;;;;2.03;1.00;;;9.30;86.90;;;;;;4975789;28;20446;-74
2023/04/02 06:16:46;;;;;;;2.20;0.90;;;9.40;86.20;;;;;;4975135;28;20530;-74
2023/04/02 06:19:20;;;;;;;2.20;1.00;;;9.50;86.20;;;;;;4974689;28;20994;-74
2023/04/02 06:21:49;;;;;;;3.57;0.87;;;9.60;86.00;;;;;;4975055;28;20901;-73
2023/04/02 06:24:19;;;;;;;2.10;0.87;;;9.60;85.50;;;;;;4974962;28;20528;-73
2023/04/02 06:26:51;;;;;;;2.60;0.93;;;9.40;85.80;;;;;;4975196;28;20541;-73
2023/04/02 06:29:25;;;;;;;3.23;1.00;;;9.40;86.40;;;;;;4974808;28;20521;-73
2023/04/02 06:31:56;;;;;;;2.20;0.90;;;9.50;86.60;;;;;;4974876;28;20470;-73
2023/04/02 06:34:26;;;;;;;2.13;0.90;;;9.60;85.60;;;;;;4974547;28;20912;-73
2023/04/02 06:36:57;;;;;;;2.80;0.93;;;9.60;85.80;;;;;;4974849;28;20493;-74
2023/04/02 06:39:26;;;;;;;2.10;1.00;;;9.60;85.60;;;;;;4974459;28;20453;-74
2023/04/02 06:42:00;;;;;;;2.00;0.90;;;9.70;86.30;;;;;;4974692;28;20470;-74
2023/04/02 06:44:31;;;;;;;2.30;1.10;;;9.70;85.20;;;;;;4975464;28;20520;-74
2023/04/02 06:47:01;;;;;;;1.90;0.77;;;9.60;85.70;;;;;;4974697;28;20485;-74
2023/04/02 06:49:36;;;;;;;1.90;0.70;;;9.80;85.90;;;;;;4974619;28;20486;-74
2023/04/02 06:52:05;;;;;;;2.00;0.70;;;10.00;85.50;;;;;;4974731;28;20473;-74
2023/04/02 06:54:32;;;;;;;2.00;0.80;;;10.00;84.80;;;;;;4974653;28;20446;-74
2023/04/02 06:56:59;;;;;;;2.10;0.80;;;10.00;84.60;;;;;;4974341;28;20461;-74
2023/04/02 06:59:26;;;;;;;1.87;0.77;;;10.00;84.50;;;;;;4974205;28;20788;-74
2023/04/02 07:01:57;;;;;;;2.83;1.47;;;10.20;84.40;;;;;;4974345;28;20533;-73
2023/04/02 07:04:26;;;;;;;2.40;1.00;;;10.30;83.70;;;;;;4975362;28;20439;-73
2023/04/02 07:06:54;;;;;;;1.93;0.80;;;10.30;83.20;;;;;;4974159;28;20447;-73
2023/04/02 07:09:21;;;;;;;2.17;0.80;;;10.30;83.20;;;;;;4974112;28;20477;-75
2023/04/02 07:11:48;;;;;;;2.30;0.93;;;10.50;83.40;;;;;;4974330;28;20465;-75
2023/04/02 07:14:15;;;;;;;2.70;1.30;;;10.70;82.60;;;;;;4974296;28;20453;-74
2023/04/02 07:16:43;;;;;;;3.20;1.10;;;10.80;82.20;;;;;;4975556;28;20827;-74
2023/04/02 07:19:17;;;;;;;1.90;0.80;;;10.90;81.50;;;;;;4974013;28;20446;-74
2023/04/02 07:21:43;;;;;;;2.03;0.70;;;10.80;81.30;;;;;;4974504;28;20478;-74
2023/04/02 07:24:11;;;;;;;1.83;0.80;;;10.90;81.50;;;;;;4974230;28;20454;-74
2023/04/02 07:26:38;;;;;;;1.80;0.60;;;10.90;81.60;;;;;;4974319;28;20450;-74
2023/04/02 07:29:06;;;;;;;2.37;0.80;;;11.00;80.90;;;;;;4974110;28;20450;-75
2023/04/02 07:31:33;;;;;;;1.90;0.77;;;11.10;80.30;;;;;;4974202;28;20473;-75
2023/04/02 07:34:00;;;;;;;2.20;0.80;;;11.10;79.80;;;;;;4973970;28;21003;-75
2023/04/02 07:36:29;;;;;;;2.30;0.97;;;11.20;80.00;;;;;;4974188;28;20452;-75
2023/04/02 07:38:56;;;;;;;1.80;0.70;;;11.30;79.50;;;;;;4974444;28;20450;-75
2023/04/02 07:41:25;;;;;;;2.33;0.80;;;11.20;79.00;;;;;;4974072;28;20469;-75
2023/04/02 07:43:52;;;;;;;2.20;0.90;;;10.90;80.30;;;;;;4974161;28;20989;-75
2023/04/02 07:46:19;;;;;;;2.40;1.00;;;11.00;80.80;;;;;;4974238;28;20809;-75
2023/04/02 07:48:46;;;;;;;1.80;0.70;;;11.00;79.80;;;;;;4974054;28;20863;-75
2023/04/02 07:51:18;;;;;;;2.00;0.80;;;10.90;79.60;;;;;;4974175;28;20486;-75
2023/04/02 07:53:48;;;;;;;2.33;0.90;;;10.80;80.80;;;;;;4973897;28;20944;-75
2023/04/02 07:56:16;;;;;;;1.97;0.80;;;11.00;80.80;;;;;;4977313;28;20465;-74
2023/04/02 07:58:45;;;;;;;2.17;1.07;;;11.10;80.70;;;;;;4990157;28;20465;-74
2023/04/02 08:01:17;;;;;;;2.20;0.90;;;11.30;79.80;;;;;;4977723;28;20478;-74
2023/04/02 08:03:44;;;;;;;2.00;0.80;;;11.30;79.40;;;;;;4975695;28;20461;-75
2023/04/02 08:06:11;;;;;;;1.90;0.70;;;11.40;79.50;;;;;;4977750;28;20481;-74
2023/04/02 08:08:38;;;;;;;1.80;0.70;;;11.30;78.30;;;;;;4977201;28;20869;-75
2023/04/02 08:11:05;;;;;;;2.10;0.90;;;11.20;79.20;;;;;;4977104;28;21054;-76
2023/04/02 08:13:32;;;;;;;2.47;0.70;;;11.30;78.80;;;;;;4977492;28;20450;-74
2023/04/02 08:16:02;;;;;;;2.07;0.70;;;11.30;78.50;;;;;;4977292;28;20449;-75
2023/04/02 08:18:29;;;;;;;2.20;1.00;;;11.40;79.10;;;;;;4977575;28;20461;-75
2023/04/02 08:20:56;;;;;;;2.00;0.80;;;11.50;77.90;;;;;;4977170;28;20473;-75
2023/04/02 08:23:23;;;;;;;1.80;0.80;;;11.60;78.80;;;;;;4977172;28;20540;-75
2023/04/02 08:25:50;;;;;;;2.20;1.03;;;11.80;78.60;;;;;;4977238;28;20447;-75
2023/04/02 08:28:17;;;;;;;1.80;0.70;;;11.90;78.20;;;;;;4977089;28;20453;-75
2023/04/02 08:30:44;;;;;;;1.77;0.63;;;11.90;76.50;;;;;;4976902;28;20485;-74
2023/04/02 08:33:12;;;;;;;1.73;0.60;;;11.60;77.50;;;;;;4977144;28;20453;-75
2023/04/02 08:35:39;;;;;;;1.90;0.80;;;11.40;77.50;;;;;;4976893;28;20454;-75
2023/04/02 08:38:05;;;;;;;1.90;0.87;;;11.30;78.80;;;;;;4977029;28;20516;-75
2023/04/02 08:40:35;;;;;;;2.33;0.80;;;11.20;78.80;;;;;;4976917;28;20446;-74
2023/04/02 08:43:28;;;;;;;2.70;0.80;;;11.30;79.00;;;;;;4976754;28;20446;-75
2023/04/02 08:46:07;;;;;;;2.10;0.90;;;11.50;79.10;;;;;;4976894;28;20486;-75
2023/04/02 08:48:38;;;;;;;2.20;0.80;;;11.70;78.30;;;;;;4976798;28;20441;-75
2023/04/02 08:51:07;;;;;;;1.80;0.70;;;11.80;77.40;;;;;;4976766;28;20492;-75
2023/04/02 08:53:37;;;;;;;3.20;0.90;;;11.80;78.00;;;;;;4976632;28;20511;-75
2023/04/02 08:56:16;;;;;;;2.37;0.77;;;11.90;77.90;;;;;;4976590;28;20450;-74
2023/04/02 08:58:44;;;;;;;1.80;0.70;;;12.10;77.10;;;;;;4976595;28;20445;-74
2023/04/02 09:01:23;;;;;;;1.90;0.83;;;12.10;76.30;;;;;;4976185;28;20482;-75
2023/04/02 09:03:56;;;;;;;2.10;1.10;;;12.00;76.80;;;;;;4976477;28;20456;-75
2023/04/02 09:06:23;;;;;;;1.80;0.70;;;12.10;76.80;;;;;;4976594;28;20809;-75
2023/04/02 09:08:52;;;;;;;1.90;0.80;;;12.20;76.50;;;;;;4976314;28;20457;-75
2023/04/02 09:11:24;;;;;;;2.00;0.80;;;12.00;76.00;;;;;;4975798;28;21058;-74
2023/04/02 09:13:55;;;;;;;1.80;0.70;;;12.00;77.40;;;;;;4976835;28;20438;-74
2023/04/02 09:16:37;;;;;;;2.10;0.77;;;12.20;76.70;;;;;;4975189;28;20442;-74
2023/04/02 09:19:16;;;;;;;1.90;0.80;;;12.30;74.40;;;;;;4976155;28;20434;-74
2023/04/02 09:21:46;;;;;;;1.90;0.60;;;12.40;75.60;;;;;;4975775;28;20470;-75
2023/04/02 09:24:12;;;;;;;2.00;0.70;;;12.40;74.50;;;;;;4976075;28;20454;-74
2023/04/02 09:26:39;;;;;;;1.90;0.73;;;12.40;75.30;;;;;;4975657;28;21026;-74
2023/04/02 09:29:25;;;;;;;2.00;0.70;;;12.30;75.70;;;;;;4975895;28;20450;-74
2023/04/02 09:31:58;;;;;;;2.07;0.80;;;12.30;75.20;;;;;;4975759;28;20492;-75
2023/04/02 09:34:32;;;;;;;1.80;0.70;;;12.40;75.60;;;;;;4975953;28;20434;-75
2023/04/02 09:37:07;;;;;;;2.27;1.00;;;12.60;75.60;;;;;;4975650;28;20982;-75
2023/04/02 09:39:34;;;;;;;2.40;0.90;;;12.70;75.30;;;;;;4976118;28;20489;-74
2023/04/02 09:42:06;;;;;;;1.90;0.70;;;12.80;74.90;;;;;;4975664;28;20561;-74
2023/04/02 09:44:33;;;;;;;1.90;0.80;;;12.90;74.20;;;;;;4975869;28;20525;-74
2023/04/02 09:47:03;;;;;;;1.80;0.80;;;13.00;74.00;;;;;;4975599;28;20450;-74
2023/04/02 09:49:32;;;;;;;1.80;0.70;;;13.00;73.50;;;;;;4975566;28;20537;-74
2023/04/02 09:52:21;;;;;;;1.93;0.80;;;13.00;73.80;;;;;;4975333;28;20517;-74
2023/04/02 09:55:12;;;;;;;2.13;0.70;;;12.70;74.70;;;;;;4975116;28;20450;-74
2023/04/02 09:57:39;;;;;;;2.10;0.90;;;12.60;75.30;;;;;;4975335;28;20438;-74
2023/04/02 10:00:16;;;;;;;1.90;0.80;;;12.60;75.20;;;;;;4975247;28;20454;-74
2023/04/02 10:02:45;;;;;;;1.90;0.80;;;12.60;75.20;;;;;;4975105;28;20493;-74
2023/04/02 10:05:20;;;;;;;2.47;0.70;;;12.50;75.40;;;;;;4975155;28;20450;-74
2023/04/02 10:07:48;;;;;;;2.93;1.00;;;12.10;76.10;;;;;;4975155;28;20485;-75
2023/04/02 10:10:22;;;;;;;2.10;1.10;;;12.10;76.40;;;;;;4975016;28;20485;-74
2023/04/02 10:12:55;;;;;;;2.23;0.83;;;12.20;76.40;;;;;;4974894;28;20429;-75
2023/04/02 10:15:28;;;;;;;1.80;0.70;;;12.10;76.50;;;;;;4975184;28;20443;-75
2023/04/02 10:18:03;;;;;;;2.10;1.20;;;12.20;76.40;;;;;;4975202;28;20514;-75
2023/04/02 10:20:34;;;;;;;2.10;0.90;;;12.30;76.40;;;;;;4974919;28;20517;-75
2023/04/02 10:23:01;;;;;;;2.10;0.80;;;12.30;76.50;;;;;;4974933;28;20434;-74
2023/04/02 10:25:36;;;;;;;2.47;0.80;;;12.20;76.60;;;;;;4974796;28;20509;-75
2023/04/02 10:28:12;;;;;;;2.37;1.10;;;12.10;77.00;;;;;;4974355;28;20792;-75
2023/04/02 10:30:51;;;;;;;1.97;0.93;;;12.30;76.60;;;;;;4974636;28;20470;-75
2023/04/02 10:33:20;;;;;;;2.20;1.00;;;12.30;76.30;;;;;;4974783;28;20522;-75
2023/04/02 10:35:57;;;;;;;2.00;0.90;;;12.30;76.50;;;;;;4974891;28;20457;-75
2023/04/02 10:38:41;;;;;;;2.00;0.90;;;12.20;76.90;;;;;;4974815;28;20517;-75
2023/04/02 10:41:21;;;;;;;2.00;0.90;;;12.20;76.60;;;;;;4974602;28;20466;-75
2023/04/02 10:44:12;;;;;;;1.90;0.80;;;12.30;76.60;;;;;;4974628;28;20434;-75
2023/04/02 10:46:48;;;;;;;2.10;0.90;;;12.40;76.70;;;;;;4975126;28;20493;-75
2023/04/02 10:49:25;;;;;;;2.60;1.00;;;12.40;76.10;;;;;;4974634;28;20429;-75
2023/04/02 10:51:58;;;;;;;1.97;0.80;;;12.50;76.00;;;;;;4974728;28;20913;-75
2023/04/02 10:54:38;;;;;;;1.90;0.70;;;12.50;75.80;;;;;;4974515;28;20530;-75
2023/04/02 10:57:11;;;;;;;1.90;0.80;;;12.60;75.80;;;;;;4974492;28;20434;-72
2023/04/02 10:59:44;;;;;;;2.00;0.80;;;12.60;75.10;;;;;;4974378;28;20493;-75
2023/04/02 11:02:31;;;;;;;1.90;0.80;;;12.50;75.40;;;;;;4974051;28;20477;-75
2023/04/02 11:05:00;;;;;;;1.90;0.80;;;12.60;75.20;;;;;;4975416;28;20437;-75
2023/04/02 11:07:31;;;;;;;2.20;0.80;;;12.70;75.30;;;;;;4974502;28;20544;-75
2023/04/02 11:10:00;;;;;;;2.10;1.00;;;12.70;75.50;;;;;;4974853;28;20438;-75
2023/04/02 11:12:35;;;;;;;1.90;0.90;;;12.80;75.20;;;;;;4974780;28;20916;-76
2023/04/02 11:15:02;;;;;;;2.00;0.80;;;12.80;74.90;;;;;;4977020;28;20438;-75
2023/04/02 11:17:29;;;;;;;1.93;0.80;;;12.50;75.70;;;;;;4976851;28;20462;-75
2023/04/02 11:20:34;;;;;;;1.90;0.80;;;12.60;75.70;;;;;;4976918;28;20800;-74
2023/04/02 11:23:11;;;;;;;2.00;0.83;;;12.70;75.70;;;;;;4976349;28;20442;-75
2023/04/02 11:25:38;;;;;;;1.90;0.80;;;12.50;75.50;;;;;;4976254;28;20430;-75
2023/04/02 11:28:27;;;;;;;1.80;0.70;;;12.40;76.10;;;;;;4974235;28;20850;-74
2023/04/02 11:30:55;;;;;;;2.20;0.70;;;12.50;76.00;;;;;;4973728;28;20517;-74
2023/04/02 11:33:39;;;;;;;1.93;0.80;;;12.60;76.00;;;;;;4974153;28;20453;-74
2023/04/02 11:36:47;;;;;;;1.90;0.80;;;12.60;76.10;;;;;;4974229;28;20470;-75
2023/04/02 11:39:48;;;;;;;1.80;0.70;;;12.70;75.60;;;;;;4941120;28;20517;-75
2023/04/02 11:42:28;;;;;;;2.80;0.70;;;12.70;75.90;;;;;;4977953;28;20458;-75
2023/04/02 11:44:56;;;;;;;1.90;0.80;;;12.70;75.60;;;;;;4977960;28;20433;-75
2023/04/02 11:47:24;;;;;;;1.93;0.80;;;12.70;75.80;;;;;;4978022;28;20453;-75
2023/04/02 11:50:26;;;;;;;2.13;0.70;;;12.80;75.30;;;;;;4977624;28;20453;-75
2023/04/02 11:52:54;;;;;;;2.03;1.13;;;12.70;75.70;;;;;;4977433;28;20446;-75
2023/04/02 11:55:26;;;;;;;2.00;0.90;;;12.70;75.50;;;;;;4977691;28;20485;-75
2023/04/02 11:58:31;;;;;;;1.90;0.90;;;12.70;75.70;;;;;;4977713;28;20533;-75
2023/04/02 12:01:42;;;;;;;1.80;0.90;;;12.50;76.10;;;;;;4977293;28;20565;-75
2023/04/02 12:04:48;;;;;;;2.10;0.70;;;12.60;76.40;;;;;;4977564;28;20530;-75
2023/04/02 12:07:33;;;;;;;1.80;0.63;;;12.40;76.70;;;;;;4977426;28;20446;-75
2023/04/02 12:10:03;;;;;;;1.90;0.87;;;12.40;76.70;;;;;;4977429;28;20438;-74
2023/04/02 12:12:37;;;;;;;1.80;0.70;;;12.50;77.10;;;;;;4977248;28;20512;-75
2023/04/02 12:15:07;;;;;;;1.97;0.93;;;12.70;76.00;;;;;;4977427;28;20489;-75
2023/04/02 12:17:36;;;;;;;2.07;0.80;;;12.80;75.50;;;;;;4978642;28;20469;-75
2023/04/02 12:20:20;;;;;;;2.23;0.80;;;12.50;75.80;;;;;;4979255;28;20512;-75
2023/04/02 12:22:50;;;;;;;1.80;0.70;;;12.40;76.70;;;;;;4978983;28;20426;-76
2023/04/02 12:25:28;;;;;;;1.80;0.70;;;12.30;76.80;;;;;;4979482;28;20528;-74
2023/04/02 12:28:16;;;;;;;1.90;0.70;;;12.40;76.00;;;;;;4979462;28;20438;-74
2023/04/02 12:30:43;;;;;;;2.10;0.80;;;12.70;76.10;;;;;;4982807;28;20474;-74
2023/04/02 12:33:29;;;;;;;2.03;0.80;;;12.90;75.30;;;;;;4984138;28;20514;-74
2023/04/02 12:35:58;;;;;;;1.93;0.80;;;13.10;73.70;;;;;;4985297;28;20438;-73
2023/04/02 12:38:27;;;;;;;2.20;0.90;;;13.10;75.20;;;;;;4985110;28;20505;-74
2023/04/02 12:40:55;;;;;;;1.80;0.70;;;13.20;74.40;;;;;;4983552;28;20506;-74
2023/04/02 12:43:28;;;;;;;1.90;0.70;;;13.30;74.00;;;;;;4976617;28;20553;-74
2023/04/02 12:45:57;;;;;;;1.90;0.70;;;13.60;73.50;;;;;;4976523;28;20967;-72
2023/04/02 12:48:24;;;;;;;1.77;0.60;;;13.80;72.60;;;;;;4976705;28;20446;-74
2023/04/02 12:50:51;;;;;;;2.23;1.10;;;14.00;71.40;;;;;;4976333;28;20956;-74
2023/04/02 12:53:25;;;;;;;1.90;0.70;;;13.90;71.80;;;;;;4976885;28;20509;-74
2023/04/02 12:55:53;;;;;;;1.77;0.60;;;13.90;72.60;;;;;;4977701;28;20461;-75
2023/04/02 12:58:29;;;;;;;1.80;0.70;;;13.90;72.20;;;;;;4976648;28;20501;-75
2023/04/02 13:01:18;;;;;;;1.80;0.60;;;13.90;71.80;;;;;;4976447;28;20485;-75
2023/04/02 13:03:58;;;;;;;1.70;0.60;;;13.90;71.50;;;;;;4976537;28;20505;-75
2023/04/02 13:06:25;;;;;;;1.73;0.60;;;13.70;72.30;;;;;;4976472;28;20435;-75
2023/04/02 13:08:53;;;;;;;1.77;0.60;;;13.90;72.20;;;;;;4976044;28;20806;-74
2023/04/02 13:11:21;;;;;;;1.90;0.80;;;13.90;71.60;;;;;;4976557;28;20490;-75
2023/04/02 13:13:50;;;;;;;1.90;0.70;;;14.10;70.30;;;;;;4976232;28;20458;-75
2023/04/02 13:16:26;;;;;;;1.70;0.60;;;14.30;69.50;;;;;;4976311;28;20450;-74
2023/04/02 13:19:10;;;;;;;1.90;0.70;;;14.40;68.90;;;;;;4978205;28;20485;-75
2023/04/02 13:21:37;;;;;;;1.80;0.60;;;14.40;67.50;;;;;;4976095;28;20470;-72
2023/04/02 13:24:04;;;;;;;2.10;0.70;;;14.30;68.60;;;;;;4976089;28;20501;-74
2023/04/02 13:26:31;;;;;;;1.90;0.80;;;14.30;68.50;;;;;;4976098;28;20446;-74
2023/04/02 13:29:01;;;;;;;2.30;1.00;;;14.40;68.00;;;;;;4976091;28;20463;-74
2023/04/02 13:31:28;;;;;;;1.70;0.60;;;14.40;67.80;;;;;;4975549;28;20915;-74
2023/04/02 13:33:55;;;;;;;1.80;0.63;;;14.40;68.20;;;;;;4975897;28;20454;-74
2023/04/02 13:36:21;;;;;;;1.80;0.60;;;14.50;67.70;;;;;;4975596;28;20450;-75
2023/04/02 13:38:48;;;;;;;2.20;0.70;;;14.50;67.90;;;;;;4975651;28;20968;-74
2023/04/02 13:41:22;;;;;;;1.80;0.60;;;14.30;68.00;;;;;;4975660;28;20474;-75
2023/04/02 13:43:49;;;;;;;1.77;0.70;;;14.30;68.80;;;;;;4975502;28;20858;-74
2023/04/02 13:46:21;;;;;;;2.00;0.70;;;14.30;68.60;;;;;;4975674;28;20505;-75
2023/04/02 13:48:47;;;;;;;2.20;1.10;;;14.30;68.50;;;;;;4975710;28;20430;-74
2023/04/02 13:51:16;;;;;;;2.17;1.10;;;14.10;69.80;;;;;;4975452;28;20881;-75
2023/04/02 13:53:44;;;;;;;2.47;1.33;;;14.00;70.50;;;;;;4975620;28;20454;-74
2023/04/02 13:56:11;;;;;;;2.17;1.20;;;13.90;70.80;;;;;;4975580;28;20454;-75
2023/04/02 13:58:38;;;;;;;2.20;1.20;;;13.80;71.40;;;;;;4975394;28;20457;-74
2023/04/02 14:01:05;;;;;;;3.47;1.70;;;13.80;71.80;;;;;;4974679;28;20478;-75
2023/04/02 14:03:33;;;;;;;2.30;1.27;;;13.60;73.60;;;;;;4976622;28;20477;-74
2023/04/02 14:06:07;;;;;;;2.20;1.30;;;13.50;74.90;;;;;;4977738;28;20450;-74
2023/04/02 14:08:46;;;;;;;2.40;1.30;;;13.20;76.30;;;;;;4977419;28;20441;-74
2023/04/02 14:11:24;;;;;;;2.10;1.10;;;13.10;76.90;;;;;;4976536;28;21050;-74
2023/04/02 14:14:10;;;;;;;2.40;1.40;;;12.90;77.60;;;;;;4977177;28;20449;-73
2023/04/02 14:16:51;;;;;;;2.40;1.60;;;12.60;78.50;;;;;;4976980;28;20442;-73
2023/04/02 14:19:30;;;;;;;2.43;1.30;;;12.40;79.10;;;;;;4980793;28;20466;-73
2023/04/02 14:22:09;;;;;;;2.70;1.40;;;12.30;79.60;;;;;;4989154;28;20994;-74
2023/04/02 14:24:48;;;;;;;2.30;1.00;;;12.20;79.90;;;;;;4997797;28;20461;-74
2023/04/02 14:27:24;;;;;;;2.33;1.50;;;12.00;79.90;;;;;;4978950;28;20477;-74
2023/04/02 14:29:57;;;;;;;2.57;2.03;;;11.90;80.40;;;;;;4977038;28;20504;-74
2023/04/02 14:32:28;;;;;;;2.97;2.10;;;12.00;80.50;;;;;;4976575;28;20501;-74
2023/04/02 14:35:06;;;;;;;2.70;1.73;;;12.10;80.40;;;;;;4976774;28;20485;-74
2023/04/02 14:37:40;;;;;;;2.20;1.20;;;12.20;80.20;;;;;;4976673;28;20438;-74
2023/04/02 14:40:17;;;;;;;2.33;1.30;;;12.00;80.60;;;;;;4976421;28;20936;-74
2023/04/02 14:42:50;;;;;;;2.10;1.30;;;11.80;81.60;;;;;;4976452;28;20462;-73
2023/04/02 14:45:29;;;;;;;2.10;1.13;;;11.90;81.40;;;;;;4975913;28;20438;-74
2023/04/02 14:48:00;;;;;;;2.50;1.70;;;11.90;81.70;;;;;;4975620;28;20461;-74
2023/04/02 14:50:35;;;;;;;2.10;1.10;;;11.70;82.40;;;;;;4975446;28;20443;-74
2023/04/02 14:53:08;;;;;;;2.70;1.43;;;11.50;83.40;;;;;;4975565;28;20536;-74
2023/04/02 14:55:38;;;;;;;2.20;1.10;;;11.50;84.00;;;;;;4974806;28;20427;-74
2023/04/02 14:58:10;;;;;;;2.27;1.10;;;11.50;84.10;;;;;;4975976;28;20434;-74
2023/04/02 15:00:41;;;;;;;1.87;0.90;;;11.40;84.20;;;;;;4974617;28;20454;-74
2023/04/02 15:03:15;;;;;;;2.10;1.13;;;11.40;84.30;;;;;;4974731;28;20903;-73
2023/04/02 15:05:46;;;;;;;2.23;1.07;;;11.30;84.60;;;;;;4974870;28;20434;-74
2023/04/02 15:08:18;;;;;;;2.07;1.07;;;11.40;84.90;;;;;;4975159;28;20779;-74
2023/04/02 15:10:55;;;;;;;2.17;1.13;;;11.40;84.90;;;;;;4974906;28;20470;-74
2023/04/02 15:13:28;;;;;;;1.97;0.93;;;11.40;85.00;;;;;;4976207;28;20469;-73
2023/04/02 15:15:58;;;;;;;1.90;0.90;;;11.50;85.00;;;;;;4978745;28;20823;-73
2023/04/02 15:18:25;;;;;;;2.10;1.00;;;11.30;85.00;;;;;;4978870;28;20469;-74
2023/04/02 15:21:04;;;;;;;2.23;1.00;;;11.40;85.10;;;;;;4978307;28;20994;-74
2023/04/02 15:23:41;;;;;;;2.10;1.17;;;11.20;85.30;;;;;;4978689;28;20438;-73
2023/04/02 15:26:18;;;;;;;2.20;1.33;;;11.10;86.00;;;;;;4978292;28;20859;-73
2023/04/02 15:28:51;;;;;;;2.17;1.23;;;11.20;86.10;;;;;;4978445;28;20425;-73
2023/04/02 15:31:21;;;;;;;2.30;1.20;;;11.10;85.90;;;;;;4979023;28;20486;-73
2023/04/02 15:33:54;;;;;;;2.13;1.20;;;11.00;86.00;;;;;;4978060;28;20572;-73
2023/04/02 15:36:31;;;;;;;2.23;1.30;;;11.20;86.10;;;;;;4978339;28;20872;-72
2023/04/02 15:39:04;;;;;;;2.10;1.10;;;11.10;85.80;;;;;;4978125;28;20441;-73
2023/04/02 15:41:36;;;;;;;2.10;1.30;;;11.30;85.50;;;;;;4978284;28;20881;-73
2023/04/02 15:44:08;;;;;;;2.10;1.10;;;11.00;85.60;;;;;;4978014;28;20439;-73
2023/04/02 15:46:45;;;;;;;2.20;1.00;;;10.90;86.10;;;;;;4978090;28;20525;-74
2023/04/02 15:49:36;;;;;;;2.27;1.20;;;10.90;86.60;;;;;;4977886;28;20505;-73
2023/04/02 15:52:10;;;;;;;2.83;1.20;;;11.00;86.00;;;;;;4977695;28;20489;-73
2023/04/02 15:55:01;;;;;;;2.10;1.10;;;10.70;86.40;;;;;;4977904;28;20489;-73
2023/04/02 15:57:43;;;;;;;2.10;1.10;;;10.70;86.50;;;;;;4977831;28;20485;-74
2023/04/02 16:00:26;;;;;;;2.30;1.20;;;10.60;86.60;;;;;;4977856;28;20437;-72
2023/04/02 16:03:30;;;;;;;2.90;1.40;;;10.40;86.80;;;;;;4977219;28;20832;-71
2023/04/02 16:06:22;;;;;;;2.20;1.20;;;10.40;87.10;;;;;;4962874;28;20481;-72
2023/04/02 16:09:03;;;;;;;2.10;1.10;;;10.40;87.20;;;;;;4977076;28;20426;-72
2023/04/02 16:11:30;;;;;;;2.50;1.73;;;10.30;87.10;;;;;;4977011;28;20761;-73
2023/04/02 16:14:08;;;;;;;2.83;1.67;;;10.30;87.80;;;;;;4977009;28;20858;-74
2023/04/02 16:16:36;;;;;;;3.43;2.00;;;10.30;87.70;;;;;;4977645;28;20445;-74
2023/04/02 16:19:07;;;;;;;4.90;1.87;;;10.10;87.90;;;;;;4977451;28;20465;-76